createdAt,value
2018-10-17T11:01:10.495Z,17.15
2018-10-17T11:03:39.465Z,11.30
2018-10-17T11:06:08.380Z,10.35
2018-10-17T11:08:37.371Z,11.78
2018-10-17T11:11:06.655Z,15.55
2018-10-17T11:13:35.856Z,12.37
2018-10-17T11:16:04.849Z,12.40
2018-10-17T11:18:33.733Z,11.93
2018-10-17T11:21:02.954Z,10.00
2018-10-17T11:23:32.132Z,8.35
2018-10-17T11:26:01.077Z,12.63
2018-10-17T11:28:29.989Z,10.28
2018-10-17T11:30:59.412Z,13.58
2018-10-17T11:33:28.557Z,7.80
2018-10-17T11:35:57.633Z,11.53
2018-10-17T11:38:26.634Z,10.68
2018-10-17T11:40:55.568Z,8.45
2018-10-17T11:43:24.552Z,19.70
2018-10-17T11:45:53.596Z,17.95
2018-10-17T11:48:22.463Z,14.98
2018-10-17T11:50:51.308Z,10.65
2018-10-17T11:53:20.202Z,10.85
2018-10-17T11:55:49.127Z,9.95
2018-10-17T11:58:18.076Z,17.70
2018-10-17T12:00:47.270Z,15.70
2018-10-17T12:03:16.162Z,7.72
2018-10-17T12:05:45.256Z,10.98
2018-10-17T12:08:14.172Z,9.80
2018-10-17T12:10:43.296Z,12.20
2018-10-17T12:13:12.440Z,10.48
2018-10-17T12:15:43.263Z,12.90
2018-10-17T12:18:12.780Z,12.33
2018-10-17T12:20:41.897Z,11.93
2018-10-17T12:23:11.203Z,13.93
2018-10-17T12:25:40.180Z,11.38
2018-10-17T12:28:09.353Z,11.78
2018-10-17T12:30:41.598Z,9.88
2018-10-17T12:33:10.934Z,14.83
2018-10-17T12:35:41.035Z,15.93
2018-10-17T12:38:10.546Z,15.63
2018-10-17T12:40:39.745Z,17.85
2018-10-17T12:43:08.739Z,14.70
2018-10-17T12:45:37.952Z,18.40
2018-10-17T12:48:07.097Z,11.12
2018-10-17T12:50:37.132Z,11.23
2018-10-17T12:53:07.263Z,10.43
2018-10-17T12:55:35.982Z,16.97
2018-10-17T12:58:05.136Z,11.03
2018-10-17T13:00:35.465Z,13.15
2018-10-17T13:03:06.927Z,11.77
2018-10-17T13:05:37.089Z,12.57
2018-10-17T13:08:06.388Z,11.90
2018-10-17T13:10:36.456Z,13.80
2018-10-17T13:13:05.723Z,11.17
2018-10-17T13:15:35.056Z,11.20
2018-10-17T13:18:04.132Z,12.40
2018-10-17T13:20:33.059Z,13.03
2018-10-17T13:23:02.366Z,11.10
2018-10-17T13:25:31.771Z,10.37
2018-10-17T13:28:00.765Z,12.87
2018-10-17T13:30:29.772Z,19.67
2018-10-17T13:32:58.829Z,17.63
2018-10-17T13:35:27.871Z,12.87
2018-10-17T13:37:56.878Z,13.90
2018-10-17T13:40:26.113Z,10.27
2018-10-17T13:42:55.213Z,10.03
2018-10-17T13:45:24.194Z,15.00
2018-10-17T13:47:53.290Z,17.77
2018-10-17T13:50:22.540Z,11.23
2018-10-17T13:52:51.503Z,12.50
2018-10-17T13:55:20.639Z,11.70
2018-10-17T13:57:49.769Z,14.87
2018-10-17T14:00:18.797Z,15.07
2018-10-17T14:09:33.045Z,10.90
2018-10-17T14:12:02.067Z,11.57
2018-10-17T14:14:31.028Z,16.20
2018-10-17T14:17:00.525Z,14.67
2018-10-17T14:19:29.519Z,14.77
2018-10-17T14:21:58.540Z,12.63
2018-10-17T14:24:27.806Z,15.57
2018-10-17T14:26:56.871Z,15.00
2018-10-17T14:29:26.883Z,18.80
2018-10-17T14:31:56.177Z,17.17
2018-10-17T14:34:25.180Z,19.03
2018-10-17T14:36:54.134Z,22.37
2018-10-17T14:39:23.466Z,20.27
2018-10-17T14:41:52.409Z,20.20
2018-10-17T14:44:21.289Z,32.30
2018-10-17T14:46:50.666Z,37.43
2018-10-17T14:49:19.583Z,29.53
2018-10-17T14:51:48.532Z,25.17
2018-10-17T14:54:17.965Z,24.97
2018-10-17T14:56:46.873Z,27.17
2018-10-17T14:59:15.894Z,20.43
2018-10-17T15:01:45.032Z,24.67
2018-10-17T15:04:14.200Z,26.40
2018-10-17T15:06:43.445Z,25.97
2018-10-17T15:09:12.690Z,26.23
2018-10-17T15:11:41.658Z,26.63
2018-10-17T15:14:10.604Z,35.43
2018-10-17T15:16:41.991Z,20.67
2018-10-17T15:19:11.051Z,21.47
2018-10-17T15:21:40.116Z,21.57
2018-10-17T15:24:09.554Z,20.80
2018-10-17T15:26:38.560Z,16.17
2018-10-17T15:29:07.568Z,20.87
2018-10-17T15:31:36.730Z,18.73
2018-10-17T15:34:05.914Z,20.10
2018-10-17T15:36:34.911Z,14.87
2018-10-17T15:39:08.241Z,22.17
2018-10-17T15:41:37.382Z,12.90
2018-10-17T15:44:07.399Z,17.17
2018-10-17T15:46:36.386Z,15.47
2018-10-17T15:49:07.811Z,11.13
2018-10-17T15:51:36.897Z,18.27
2018-10-17T15:54:05.945Z,19.80
2018-10-17T15:56:35.104Z,15.40
2018-10-17T15:59:04.047Z,11.37
2018-10-17T16:01:33.196Z,17.07
2018-10-17T16:04:02.371Z,15.87
2018-10-17T16:06:31.395Z,18.13
2018-10-17T16:09:00.519Z,8.80
2018-10-17T16:11:29.829Z,13.20
2018-10-17T16:13:58.986Z,12.03
2018-10-17T16:16:27.987Z,12.90
2018-10-17T16:18:57.102Z,17.33
2018-10-17T16:22:55.370Z,13.47
2018-10-17T16:25:24.945Z,18.90
2018-10-17T16:27:54.126Z,25.93
2018-10-17T16:30:24.792Z,11.80
2018-10-17T16:32:54.158Z,12.63
2018-10-17T16:35:23.069Z,13.10
2018-10-17T16:37:52.478Z,23.10
2018-10-17T16:40:21.707Z,12.87
2018-10-17T16:42:50.830Z,14.90
2018-10-17T16:45:27.878Z,13.60
2018-10-17T16:47:58.036Z,13.10
2018-10-17T16:50:27.633Z,19.83
2018-10-17T16:52:56.973Z,17.53
2018-10-17T16:55:26.572Z,15.07
2018-10-17T16:57:56.383Z,10.97
2018-10-17T17:00:25.768Z,13.83
2018-10-17T17:02:55.080Z,19.50
2018-10-17T17:05:24.116Z,13.20
2018-10-17T17:07:53.173Z,14.27
2018-10-17T17:10:22.281Z,19.93
2018-10-17T17:12:51.400Z,13.53
2018-10-17T17:15:20.411Z,18.83
2018-10-17T17:17:49.438Z,18.73
2018-10-17T17:20:18.804Z,20.63
2018-10-17T17:22:48.049Z,20.37
2018-10-17T17:25:16.878Z,22.43
2018-10-17T17:27:46.095Z,23.10
2018-10-17T17:30:17.158Z,17.97
2018-10-17T17:32:47.034Z,18.73
2018-10-17T17:35:16.077Z,24.90
2018-10-17T17:37:45.039Z,22.17
2018-10-17T17:40:15.019Z,23.47
2018-10-17T17:42:44.024Z,25.83
2018-10-17T17:45:13.012Z,24.80
2018-10-17T17:47:42.610Z,20.67
2018-10-17T17:50:11.969Z,24.73
2018-10-17T17:52:41.056Z,24.07
2018-10-17T17:55:10.600Z,33.23
2018-10-17T17:57:39.795Z,34.70
2018-10-17T18:00:09.066Z,36.20
2018-10-17T18:02:38.109Z,36.07
2018-10-17T18:05:07.991Z,40.70
2018-10-17T18:07:37.172Z,37.37
2018-10-17T18:10:06.956Z,44.27
2018-10-17T18:12:36.163Z,29.47
2018-10-17T18:15:05.723Z,35.07
2018-10-17T18:17:35.192Z,31.93
2018-10-17T18:20:04.158Z,30.90
2018-10-17T18:22:33.159Z,25.40
2018-10-17T18:25:02.288Z,25.27
2018-10-17T18:27:31.377Z,28.30
2018-10-17T18:30:01.370Z,36.30
2018-10-17T18:32:30.509Z,30.83
2018-10-17T18:34:59.622Z,24.83
2018-10-17T18:37:28.632Z,28.40
2018-10-17T18:39:58.156Z,26.57
2018-10-17T18:42:27.157Z,25.83
2018-10-17T18:44:56.097Z,31.33
2018-10-17T18:47:25.501Z,29.37
2018-10-17T18:51:24.033Z,29.57
2018-10-17T18:53:53.253Z,25.53
2018-10-17T18:56:22.151Z,29.43
2018-10-17T18:58:51.347Z,27.67
2018-10-17T19:01:20.328Z,28.03
2018-10-17T19:03:49.439Z,30.93
2018-10-17T19:06:18.597Z,26.63
2018-10-17T19:08:47.970Z,30.37
2018-10-17T19:11:16.958Z,27.37
2018-10-17T19:13:46.041Z,31.40
2018-10-17T19:16:15.517Z,28.67
2018-10-17T19:18:44.488Z,29.27
2018-10-17T19:21:13.674Z,27.13
2018-10-17T19:23:43.401Z,27.27
2018-10-17T19:26:12.502Z,24.27
2018-10-17T19:28:41.596Z,28.00
2018-10-17T19:31:10.952Z,25.27
2018-10-17T19:33:40.046Z,24.97
2018-10-17T19:36:09.071Z,30.57
2018-10-17T19:38:38.507Z,30.50
2018-10-17T19:41:07.519Z,27.60
2018-10-17T19:43:36.813Z,26.07
2018-10-17T19:46:06.310Z,27.73
2018-10-17T19:48:35.621Z,28.87
2018-10-17T19:51:04.952Z,26.37
2018-10-17T19:53:34.256Z,25.97
2018-10-17T19:56:03.544Z,26.13
2018-10-17T19:58:32.648Z,26.87
2018-10-17T20:01:01.626Z,28.00
2018-10-17T20:03:30.905Z,35.70
2018-10-17T20:05:59.815Z,24.80
2018-10-17T20:08:28.911Z,25.83
2018-10-17T20:10:58.098Z,30.70
2018-10-17T20:13:27.213Z,57.40
2018-10-17T20:15:56.200Z,26.73
2018-10-17T20:18:25.505Z,33.20
2018-10-17T20:20:54.626Z,27.60
2018-10-17T20:23:23.880Z,27.87
2018-10-17T20:25:53.038Z,26.50
2018-10-17T20:28:22.032Z,36.00
2018-10-17T20:30:51.014Z,31.23
2018-10-17T20:33:20.079Z,37.77
2018-10-17T20:35:49.344Z,38.80
2018-10-17T20:38:18.776Z,36.47
2018-10-17T20:40:47.949Z,38.40
2018-10-17T20:43:16.988Z,29.30
2018-10-17T20:45:46.483Z,37.87
2018-10-17T20:48:15.433Z,26.33
2018-10-17T20:50:44.539Z,32.37
2018-10-17T20:53:13.866Z,23.10
2018-10-17T20:55:42.857Z,24.57
2018-10-17T20:58:11.859Z,22.47
2018-10-17T21:00:41.047Z,25.73
2018-10-17T21:03:09.936Z,26.47
2018-10-17T21:05:38.881Z,22.80
2018-10-17T21:08:08.083Z,24.50
2018-10-17T21:10:37.012Z,26.50
2018-10-17T21:13:05.988Z,21.57
2018-10-17T21:15:35.642Z,29.03
2018-10-17T21:18:04.950Z,22.97
2018-10-17T21:20:34.153Z,27.43
2018-10-17T21:23:03.165Z,26.07
2018-10-17T21:25:32.232Z,42.67
2018-10-17T21:28:01.271Z,45.97
2018-10-17T21:30:30.561Z,52.87
2018-10-17T21:32:59.629Z,55.73
2018-10-17T21:35:28.684Z,66.17
2018-10-17T21:37:58.057Z,66.17
2018-10-17T21:40:26.865Z,80.30
2018-10-17T21:42:55.849Z,75.03
2018-10-17T21:45:24.661Z,76.10
2018-10-17T21:47:53.634Z,80.67
2018-10-17T21:50:22.728Z,77.17
2018-10-17T21:52:52.158Z,78.67
2018-10-17T21:55:21.207Z,72.07
2018-10-17T21:57:50.339Z,73.33
2018-10-17T22:00:20.085Z,70.33
2018-10-17T22:02:48.997Z,64.17
2018-10-17T22:05:17.944Z,64.80
2018-10-17T22:07:47.013Z,55.60
2018-10-17T22:10:15.996Z,63.77
2018-10-17T22:12:45.035Z,67.43
2018-10-17T22:15:14.242Z,67.77
2018-10-17T22:17:43.220Z,62.70
2018-10-17T22:20:12.292Z,63.07
2018-10-17T22:22:41.429Z,47.90
2018-10-17T22:25:10.562Z,46.20
2018-10-17T22:27:39.546Z,47.77
2018-10-17T22:30:09.153Z,36.73
2018-10-17T22:32:38.096Z,39.17
2018-10-17T22:35:07.069Z,34.07
2018-10-17T22:37:36.484Z,33.00
2018-10-17T22:40:05.540Z,30.90
2018-10-17T22:42:34.524Z,33.27
2018-10-17T22:45:03.610Z,28.70
2018-10-17T22:47:32.692Z,35.30
2018-10-17T22:50:01.845Z,27.90
2018-10-17T22:52:30.970Z,27.63
2018-10-17T22:54:59.988Z,26.40
2018-10-17T22:57:29.026Z,23.93
2018-10-17T22:59:58.063Z,24.20
2018-10-17T23:02:27.098Z,24.03
2018-10-17T23:04:56.280Z,24.73
2018-10-17T23:07:25.733Z,24.00
2018-10-17T23:09:54.727Z,24.27
2018-10-17T23:12:23.904Z,20.30
2018-10-17T23:14:53.129Z,24.33
2018-10-17T23:17:22.261Z,22.37
2018-10-17T23:19:51.323Z,21.77
2018-10-17T23:22:20.490Z,19.03
2018-10-17T23:24:49.456Z,21.17
2018-10-17T23:27:18.475Z,25.07
2018-10-17T23:29:47.428Z,26.50
2018-10-17T23:32:16.614Z,28.90
2018-10-17T23:34:45.772Z,27.03
2018-10-17T23:37:14.884Z,21.07
2018-10-17T23:39:43.787Z,21.43
2018-10-17T23:42:12.758Z,28.57
2018-10-17T23:44:42.136Z,31.33
2018-10-17T23:47:11.076Z,34.47
2018-10-17T23:49:40.011Z,32.20
2018-10-17T23:52:09.187Z,35.50
2018-10-17T23:54:38.120Z,36.53
2018-10-17T23:57:07.094Z,33.67
2018-10-17T23:59:36.680Z,36.87
